sensor_id;sensor_type;location;lat;lon;timestamp;temperature;humidity
42135;DHT22;28312;43.460;11.810;2023-07-28T00:01:27;18.70;50.60
42135;DHT22;28312;43.460;11.810;2023-07-28T00:05:31;18.60;50.70
42135;DHT22;28312;43.460;11.810;2023-07-28T00:09:35;18.50;50.80
42135;DHT22;28312;43.460;11.810;2023-07-28T00:13:39;18.40;50.90
42135;DHT22;28312;43.460;11.810;2023-07-28T00:17:43;18.30;50.90
42135;DHT22;28312;43.460;11.810;2023-07-28T00:21:48;18.20;50.90
42135;DHT22;28312;43.460;11.810;2023-07-28T00:25:52;18.10;51.00
42135;DHT22;28312;43.460;11.810;2023-07-28T00:29:56;18.00;51.10
42135;DHT22;28312;43.460;11.810;2023-07-28T00:34:01;17.90;51.30
42135;DHT22;28312;43.460;11.810;2023-07-28T00:38:05;17.70;51.30
42135;DHT22;28312;43.460;11.810;2023-07-28T00:42:09;17.60;51.50
42135;DHT22;28312;43.460;11.810;2023-07-28T00:46:13;17.40;51.60
42135;DHT22;28312;43.460;11.810;2023-07-28T00:50:17;17.30;51.70
42135;DHT22;28312;43.460;11.810;2023-07-28T00:54:21;17.30;51.80
42135;DHT22;28312;43.460;11.810;2023-07-28T00:58:25;17.20;51.90
42135;DHT22;28312;43.460;11.810;2023-07-28T01:02:30;17.10;51.90
42135;DHT22;28312;43.460;11.810;2023-07-28T01:06:42;17.10;52.10
42135;DHT22;28312;43.460;11.810;2023-07-28T01:10:48;17.00;52.20
42135;DHT22;28312;43.460;11.810;2023-07-28T01:14:53;16.90;52.20
42135;DHT22;28312;43.460;11.810;2023-07-28T01:18:56;16.90;52.40
42135;DHT22;28312;43.460;11.810;2023-07-28T01:27:14;16.70;52.50
42135;DHT22;28312;43.460;11.810;2023-07-28T01:31:18;16.60;52.60
42135;DHT22;28312;43.460;11.810;2023-07-28T01:35:23;16.60;52.60
42135;DHT22;28312;43.460;11.810;2023-07-28T01:39:27;16.50;52.70
42135;DHT22;28312;43.460;11.810;2023-07-28T01:43:30;16.40;52.80
42135;DHT22;28312;43.460;11.810;2023-07-28T01:47:37;16.30;52.80
42135;DHT22;28312;43.460;11.810;2023-07-28T01:51:41;16.20;52.50
42135;DHT22;28312;43.460;11.810;2023-07-28T01:55:44;16.10;52.80
42135;DHT22;28312;43.460;11.810;2023-07-28T01:59:49;16.10;53.00
42135;DHT22;28312;43.460;11.810;2023-07-28T02:03:53;16.00;53.10
42135;DHT22;28312;43.460;11.810;2023-07-28T02:07:58;15.90;53.10
42135;DHT22;28312;43.460;11.810;2023-07-28T02:12:02;15.90;53.10
42135;DHT22;28312;43.460;11.810;2023-07-28T02:16:06;15.80;53.30
42135;DHT22;28312;43.460;11.810;2023-07-28T02:20:10;15.70;53.40
42135;DHT22;28312;43.460;11.810;2023-07-28T02:24:16;15.70;53.40
42135;DHT22;28312;43.460;11.810;2023-07-28T02:28:21;15.60;53.60
42135;DHT22;28312;43.460;11.810;2023-07-28T02:32:25;15.50;53.80
42135;DHT22;28312;43.460;11.810;2023-07-28T02:36:29;15.50;53.80
42135;DHT22;28312;43.460;11.810;2023-07-28T02:40:33;15.50;53.90
42135;DHT22;28312;43.460;11.810;2023-07-28T02:44:38;15.50;53.90
42135;DHT22;28312;43.460;11.810;2023-07-28T02:48:43;15.40;54.00
42135;DHT22;28312;43.460;11.810;2023-07-28T02:52:47;15.30;54.10
42135;DHT22;28312;43.460;11.810;2023-07-28T02:56:51;15.30;54.20
42135;DHT22;28312;43.460;11.810;2023-07-28T03:00:55;15.20;54.20
42135;DHT22;28312;43.460;11.810;2023-07-28T03:05:07;15.20;54.30
42135;DHT22;28312;43.460;11.810;2023-07-28T03:09:14;15.20;54.40
42135;DHT22;28312;43.460;11.810;2023-07-28T03:13:29;15.20;54.00
42135;DHT22;28312;43.460;11.810;2023-07-28T03:17:34;15.20;54.30
42135;DHT22;28312;43.460;11.810;2023-07-28T03:21:38;15.00;54.50
42135;DHT22;28312;43.460;11.810;2023-07-28T03:25:42;14.90;54.60
42135;DHT22;28312;43.460;11.810;2023-07-28T03:29:46;14.90;54.80
42135;DHT22;28312;43.460;11.810;2023-07-28T03:33:52;14.80;55.00
42135;DHT22;28312;43.460;11.810;2023-07-28T03:37:56;14.80;54.90
42135;DHT22;28312;43.460;11.810;2023-07-28T03:42:00;14.80;54.90
42135;DHT22;28312;43.460;11.810;2023-07-28T03:46:05;14.80;55.00
42135;DHT22;28312;43.460;11.810;2023-07-28T03:50:09;14.80;55.30
42135;DHT22;28312;43.460;11.810;2023-07-28T03:54:13;14.80;55.50
42135;DHT22;28312;43.460;11.810;2023-07-28T03:58:16;14.70;55.50
42135;DHT22;28312;43.460;11.810;2023-07-28T04:02:20;14.80;55.60
42135;DHT22;28312;43.460;11.810;2023-07-28T04:10:44;14.80;55.60
42135;DHT22;28312;43.460;11.810;2023-07-28T04:14:47;14.80;55.70
42135;DHT22;28312;43.460;11.810;2023-07-28T04:18:51;14.80;55.80
42135;DHT22;28312;43.460;11.810;2023-07-28T04:22:55;14.70;55.90
42135;DHT22;28312;43.460;11.810;2023-07-28T04:26:59;14.80;56.00
42135;DHT22;28312;43.460;11.810;2023-07-28T04:31:04;14.80;56.10
42135;DHT22;28312;43.460;11.810;2023-07-28T04:35:33;14.90;56.20
42135;DHT22;28312;43.460;11.810;2023-07-28T04:39:49;15.00;56.20
42135;DHT22;28312;43.460;11.810;2023-07-28T04:43:53;15.00;56.30
42135;DHT22;28312;43.460;11.810;2023-07-28T04:48:00;15.10;56.40
42135;DHT22;28312;43.460;11.810;2023-07-28T04:52:04;15.20;56.50
42135;DHT22;28312;43.460;11.810;2023-07-28T04:56:26;15.20;56.60
42135;DHT22;28312;43.460;11.810;2023-07-28T05:00:30;15.40;56.70
42135;DHT22;28312;43.460;11.810;2023-07-28T05:04:33;15.50;56.90
42135;DHT22;28312;43.460;11.810;2023-07-28T05:08:37;15.70;57.10
42135;DHT22;28312;43.460;11.810;2023-07-28T05:12:41;15.80;57.10
42135;DHT22;28312;43.460;11.810;2023-07-28T05:16:44;16.00;57.30
42135;DHT22;28312;43.460;11.810;2023-07-28T05:21:00;16.20;57.40
42135;DHT22;28312;43.460;11.810;2023-07-28T05:25:04;16.30;57.40
42135;DHT22;28312;43.460;11.810;2023-07-28T05:29:14;16.50;57.50
42135;DHT22;28312;43.460;11.810;2023-07-28T05:33:21;16.70;57.60
42135;DHT22;28312;43.460;11.810;2023-07-28T05:37:25;17.00;57.60
42135;DHT22;28312;43.460;11.810;2023-07-28T05:41:28;17.20;57.70
42135;DHT22;28312;43.460;11.810;2023-07-28T05:45:32;17.60;57.80
42135;DHT22;28312;43.460;11.810;2023-07-28T05:49:36;17.90;57.70
42135;DHT22;28312;43.460;11.810;2023-07-28T05:53:40;18.20;57.60
42135;DHT22;28312;43.460;11.810;2023-07-28T05:57:44;18.50;57.70
42135;DHT22;28312;43.460;11.810;2023-07-28T06:01:48;18.80;57.60
42135;DHT22;28312;43.460;11.810;2023-07-28T06:06:19;19.20;57.40
42135;DHT22;28312;43.460;11.810;2023-07-28T06:10:22;19.60;57.30
42135;DHT22;28312;43.460;11.810;2023-07-28T06:14:27;20.00;57.00
42135;DHT22;28312;43.460;11.810;2023-07-28T06:18:32;20.40;56.70
42135;DHT22;28312;43.460;11.810;2023-07-28T06:22:49;20.70;56.40
42135;DHT22;28312;43.460;11.810;2023-07-28T06:26:53;21.00;56.00
42135;DHT22;28312;43.460;11.810;2023-07-28T06:30:57;21.10;55.70
42135;DHT22;28312;43.460;11.810;2023-07-28T06:35:03;21.20;55.60
42135;DHT22;28312;43.460;11.810;2023-07-28T06:39:07;21.40;55.50
42135;DHT22;28312;43.460;11.810;2023-07-28T06:43:10;21.50;55.50
42135;DHT22;28312;43.460;11.810;2023-07-28T06:47:14;21.60;55.40
42135;DHT22;28312;43.460;11.810;2023-07-28T06:51:17;21.70;55.50
42135;DHT22;28312;43.460;11.810;2023-07-28T06:55:22;21.90;55.50
42135;DHT22;28312;43.460;11.810;2023-07-28T06:59:26;22.10;55.40
42135;DHT22;28312;43.460;11.810;2023-07-28T07:03:30;22.30;55.50
42135;DHT22;28312;43.460;11.810;2023-07-28T07:07:33;22.60;55.40
42135;DHT22;28312;43.460;11.810;2023-07-28T07:11:37;22.90;55.40
42135;DHT22;28312;43.460;11.810;2023-07-28T07:15:41;23.10;55.20
42135;DHT22;28312;43.460;11.810;2023-07-28T07:19:45;23.20;55.30
42135;DHT22;28312;43.460;11.810;2023-07-28T07:23:49;23.50;55.40
42135;DHT22;28312;43.460;11.810;2023-07-28T07:28:01;23.70;55.40
42135;DHT22;28312;43.460;11.810;2023-07-28T07:32:06;24.10;55.20
42135;DHT22;28312;43.460;11.810;2023-07-28T07:36:17;24.40;54.90
42135;DHT22;28312;43.460;11.810;2023-07-28T07:40:21;24.50;54.60
42135;DHT22;28312;43.460;11.810;2023-07-28T07:44:26;24.60;54.60
42135;DHT22;28312;43.460;11.810;2023-07-28T07:48:31;24.60;54.50
42135;DHT22;28312;43.460;11.810;2023-07-28T07:52:35;24.60;54.60
42135;DHT22;28312;43.460;11.810;2023-07-28T07:56:43;24.70;54.60
42135;DHT22;28312;43.460;11.810;2023-07-28T08:00:46;24.70;54.60
42135;DHT22;28312;43.460;11.810;2023-07-28T08:04:52;24.70;54.60
42135;DHT22;28312;43.460;11.810;2023-07-28T08:08:56;24.70;54.70
42135;DHT22;28312;43.460;11.810;2023-07-28T08:13:02;24.90;54.70
42135;DHT22;28312;43.460;11.810;2023-07-28T08:17:08;24.90;54.40
42135;DHT22;28312;43.460;11.810;2023-07-28T08:21:12;25.00;54.60
42135;DHT22;28312;43.460;11.810;2023-07-28T08:25:17;25.10;54.70
42135;DHT22;28312;43.460;11.810;2023-07-28T08:29:20;25.10;54.60
42135;DHT22;28312;43.460;11.810;2023-07-28T08:33:24;25.10;54.70
42135;DHT22;28312;43.460;11.810;2023-07-28T08:37:28;25.10;54.80
42135;DHT22;28312;43.460;11.810;2023-07-28T08:41:32;25.30;54.80
42135;DHT22;28312;43.460;11.810;2023-07-28T08:45:36;25.30;54.90
42135;DHT22;28312;43.460;11.810;2023-07-28T08:49:39;25.60;55.00
42135;DHT22;28312;43.460;11.810;2023-07-28T08:53:44;25.90;55.10
42135;DHT22;28312;43.460;11.810;2023-07-28T08:57:49;26.20;54.90
42135;DHT22;28312;43.460;11.810;2023-07-28T09:01:54;26.60;54.70
42135;DHT22;28312;43.460;11.810;2023-07-28T09:06:02;26.90;54.30
42135;DHT22;28312;43.460;11.810;2023-07-28T09:10:07;27.10;54.00
42135;DHT22;28312;43.460;11.810;2023-07-28T09:14:15;27.10;54.10
42135;DHT22;28312;43.460;11.810;2023-07-28T09:18:19;27.30;54.10
42135;DHT22;28312;43.460;11.810;2023-07-28T09:22:25;27.50;54.00
42135;DHT22;28312;43.460;11.810;2023-07-28T09:26:38;27.70;54.00
42135;DHT22;28312;43.460;11.810;2023-07-28T09:30:47;27.90;53.70
42135;DHT22;28312;43.460;11.810;2023-07-28T09:35:11;28.10;53.70
42135;DHT22;28312;43.460;11.810;2023-07-28T09:39:16;28.10;53.40
42135;DHT22;28312;43.460;11.810;2023-07-28T09:43:20;28.10;53.30
42135;DHT22;28312;43.460;11.810;2023-07-28T09:47:24;28.20;53.70
42135;DHT22;28312;43.460;11.810;2023-07-28T09:51:30;28.40;53.40
42135;DHT22;28312;43.460;11.810;2023-07-28T09:55:38;28.70;53.30
42135;DHT22;28312;43.460;11.810;2023-07-28T09:59:45;28.80;53.10
42135;DHT22;28312;43.460;11.810;2023-07-28T10:03:50;29.10;52.70
42135;DHT22;28312;43.460;11.810;2023-07-28T10:07:54;29.10;52.50
42135;DHT22;28312;43.460;11.810;2023-07-28T10:11:58;29.20;52.40
42135;DHT22;28312;43.460;11.810;2023-07-28T10:16:02;29.20;52.10
42135;DHT22;28312;43.460;11.810;2023-07-28T10:20:06;29.20;51.90
42135;DHT22;28312;43.460;11.810;2023-07-28T10:24:14;29.30;51.80
42135;DHT22;28312;43.460;11.810;2023-07-28T10:28:33;29.40;51.60
42135;DHT22;28312;43.460;11.810;2023-07-28T10:32:45;29.50;51.50
42135;DHT22;28312;43.460;11.810;2023-07-28T10:36:59;29.60;51.60
42135;DHT22;28312;43.460;11.810;2023-07-28T10:41:17;29.80;51.40
42135;DHT22;28312;43.460;11.810;2023-07-28T10:45:23;29.90;51.30
42135;DHT22;28312;43.460;11.810;2023-07-28T10:49:27;30.10;51.50
42135;DHT22;28312;43.460;11.810;2023-07-28T10:53:31;30.50;51.10
42135;DHT22;28312;43.460;11.810;2023-07-28T10:57:36;30.60;50.40
42135;DHT22;28312;43.460;11.810;2023-07-28T11:01:42;30.60;50.20
42135;DHT22;28312;43.460;11.810;2023-07-28T11:05:49;30.50;50.30
42135;DHT22;28312;43.460;11.810;2023-07-28T11:09:53;30.60;50.20
42135;DHT22;28312;43.460;11.810;2023-07-28T11:13:58;30.80;50.00
42135;DHT22;28312;43.460;11.810;2023-07-28T11:18:03;30.80;49.70
42135;DHT22;28312;43.460;11.810;2023-07-28T11:22:09;31.00;49.90
42135;DHT22;28312;43.460;11.810;2023-07-28T11:26:13;31.20;49.90
42135;DHT22;28312;43.460;11.810;2023-07-28T11:30:18;31.30;49.80
42135;DHT22;28312;43.460;11.810;2023-07-28T11:34:22;31.50;49.70
42135;DHT22;28312;43.460;11.810;2023-07-28T11:38:26;31.50;50.00
42135;DHT22;28312;43.460;11.810;2023-07-28T11:42:30;31.70;49.70
42135;DHT22;28312;43.460;11.810;2023-07-28T11:46:41;31.60;49.00
42135;DHT22;28312;43.460;11.810;2023-07-28T11:50:46;31.50;49.10
42135;DHT22;28312;43.460;11.810;2023-07-28T11:54:52;31.40;49.10
42135;DHT22;28312;43.460;11.810;2023-07-28T11:58:56;31.40;48.80
42135;DHT22;28312;43.460;11.810;2023-07-28T12:03:08;31.50;49.10
42135;DHT22;28312;43.460;11.810;2023-07-28T12:07:17;31.60;48.50
42135;DHT22;28312;43.460;11.810;2023-07-28T12:11:21;31.60;48.40
42135;DHT22;28312;43.460;11.810;2023-07-28T12:15:47;31.50;47.90
42135;DHT22;28312;43.460;11.810;2023-07-28T12:20:08;31.40;48.20
42135;DHT22;28312;43.460;11.810;2023-07-28T12:24:24;31.40;48.40
42135;DHT22;28312;43.460;11.810;2023-07-28T12:28:28;31.50;48.00
42135;DHT22;28312;43.460;11.810;2023-07-28T12:32:32;31.40;47.90
42135;DHT22;28312;43.460;11.810;2023-07-28T12:36:40;31.30;48.00
42135;DHT22;28312;43.460;11.810;2023-07-28T12:40:47;31.40;48.30
42135;DHT22;28312;43.460;11.810;2023-07-28T12:44:54;31.80;48.60
42135;DHT22;28312;43.460;11.810;2023-07-28T12:49:05;32.00;47.60
42135;DHT22;28312;43.460;11.810;2023-07-28T12:53:10;31.70;47.30
42135;DHT22;28312;43.460;11.810;2023-07-28T12:57:21;31.40;47.80
42135;DHT22;28312;43.460;11.810;2023-07-28T13:01:24;31.40;48.10
42135;DHT22;28312;43.460;11.810;2023-07-28T13:05:28;31.70;48.50
42135;DHT22;28312;43.460;11.810;2023-07-28T13:09:32;32.00;48.00
42135;DHT22;28312;43.460;11.810;2023-07-28T13:13:39;32.20;48.00
42135;DHT22;28312;43.460;11.810;2023-07-28T13:17:43;32.60;47.90
42135;DHT22;28312;43.460;11.810;2023-07-28T13:21:48;32.70;47.40
42135;DHT22;28312;43.460;11.810;2023-07-28T13:25:52;32.60;47.20
42135;DHT22;28312;43.460;11.810;2023-07-28T13:29:56;32.80;46.80
42135;DHT22;28312;43.460;11.810;2023-07-28T13:34:01;32.80;46.40
42135;DHT22;28312;43.460;11.810;2023-07-28T13:38:05;32.60;46.80
42135;DHT22;28312;43.460;11.810;2023-07-28T13:42:09;32.60;46.50
42135;DHT22;28312;43.460;11.810;2023-07-28T13:46:16;32.60;46.40
42135;DHT22;28312;43.460;11.810;2023-07-28T13:50:19;32.50;46.30
42135;DHT22;28312;43.460;11.810;2023-07-28T13:54:23;32.30;46.20
42135;DHT22;28312;43.460;11.810;2023-07-28T13:58:26;32.10;46.20
42135;DHT22;28312;43.460;11.810;2023-07-28T14:02:30;31.90;46.40
42135;DHT22;28312;43.460;11.810;2023-07-28T14:06:37;32.10;46.60
42135;DHT22;28312;43.460;11.810;2023-07-28T14:10:44;32.30;46.60
42135;DHT22;28312;43.460;11.810;2023-07-28T14:14:48;32.60;46.60
42135;DHT22;28312;43.460;11.810;2023-07-28T14:18:53;33.00;46.60
42135;DHT22;28312;43.460;11.810;2023-07-28T14:22:59;33.30;46.40
42135;DHT22;28312;43.460;11.810;2023-07-28T14:27:06;33.40;45.90
42135;DHT22;28312;43.460;11.810;2023-07-28T14:31:10;33.20;45.80
42135;DHT22;28312;43.460;11.810;2023-07-28T14:35:13;33.30;46.00
42135;DHT22;28312;43.460;11.810;2023-07-28T14:39:17;33.40;45.60
42135;DHT22;28312;43.460;11.810;2023-07-28T14:43:21;33.30;45.50
42135;DHT22;28312;43.460;11.810;2023-07-28T14:47:25;33.20;45.50
42135;DHT22;28312;43.460;11.810;2023-07-28T14:51:29;33.20;45.50
42135;DHT22;28312;43.460;11.810;2023-07-28T14:55:33;33.30;45.80
42135;DHT22;28312;43.460;11.810;2023-07-28T14:59:36;33.50;45.50
42135;DHT22;28312;43.460;11.810;2023-07-28T15:03:42;33.50;45.40
42135;DHT22;28312;43.460;11.810;2023-07-28T15:07:46;33.50;45.60
42135;DHT22;28312;43.460;11.810;2023-07-28T15:11:49;33.50;45.10
42135;DHT22;28312;43.460;11.810;2023-07-28T15:25:41;32.50;45.10
42135;DHT22;28312;43.460;11.810;2023-07-28T15:29:47;32.40;45.70
42135;DHT22;28312;43.460;11.810;2023-07-28T15:33:49;32.40;45.70
42135;DHT22;28312;43.460;11.810;2023-07-28T15:37:51;32.30;45.80
42135;DHT22;28312;43.460;11.810;2023-07-28T15:41:54;32.40;45.90
42135;DHT22;28312;43.460;11.810;2023-07-28T15:45:56;32.50;45.60
42135;DHT22;28312;43.460;11.810;2023-07-28T15:49:59;32.40;45.50
42135;DHT22;28312;43.460;11.810;2023-07-28T15:54:01;32.40;45.30
42135;DHT22;28312;43.460;11.810;2023-07-28T15:58:04;32.30;45.30
42135;DHT22;28312;43.460;11.810;2023-07-28T16:02:06;32.20;45.00
42135;DHT22;28312;43.460;11.810;2023-07-28T16:06:08;31.80;45.00
42135;DHT22;28312;43.460;11.810;2023-07-28T16:10:10;31.50;45.20
42135;DHT22;28312;43.460;11.810;2023-07-28T16:14:12;31.30;45.30
42135;DHT22;28312;43.460;11.810;2023-07-28T16:18:15;31.10;45.50
42135;DHT22;28312;43.460;11.810;2023-07-28T16:22:17;30.90;45.60
42135;DHT22;28312;43.460;11.810;2023-07-28T16:26:21;30.70;45.70
42135;DHT22;28312;43.460;11.810;2023-07-28T16:30:25;30.60;45.90
42135;DHT22;28312;43.460;11.810;2023-07-28T16:34:29;30.60;45.90
42135;DHT22;28312;43.460;11.810;2023-07-28T16:38:32;30.50;46.10
42135;DHT22;28312;43.460;11.810;2023-07-28T16:42:35;30.50;46.00
42135;DHT22;28312;43.460;11.810;2023-07-28T16:46:39;30.50;46.10
42135;DHT22;28312;43.460;11.810;2023-07-28T16:50:42;30.50;46.10
42135;DHT22;28312;43.460;11.810;2023-07-28T16:54:45;30.30;46.20
42135;DHT22;28312;43.460;11.810;2023-07-28T16:58:49;30.30;46.20
42135;DHT22;28312;43.460;11.810;2023-07-28T17:02:52;30.20;46.30
42135;DHT22;28312;43.460;11.810;2023-07-28T17:06:56;30.10;46.40
42135;DHT22;28312;43.460;11.810;2023-07-28T17:10:59;30.10;46.50
42135;DHT22;28312;43.460;11.810;2023-07-28T17:15:03;30.00;46.50
42135;DHT22;28312;43.460;11.810;2023-07-28T17:19:06;29.90;46.60
42135;DHT22;28312;43.460;11.810;2023-07-28T17:23:10;29.80;46.60
42135;DHT22;28312;43.460;11.810;2023-07-28T17:27:14;29.80;46.60
42135;DHT22;28312;43.460;11.810;2023-07-28T17:31:17;29.70;46.70
42135;DHT22;28312;43.460;11.810;2023-07-28T17:35:21;29.60;46.80
42135;DHT22;28312;43.460;11.810;2023-07-28T17:39:26;29.50;46.90
42135;DHT22;28312;43.460;11.810;2023-07-28T17:43:30;29.40;46.90
42135;DHT22;28312;43.460;11.810;2023-07-28T17:47:34;29.30;47.00
42135;DHT22;28312;43.460;11.810;2023-07-28T17:51:41;29.30;47.10
42135;DHT22;28312;43.460;11.810;2023-07-28T17:55:46;29.20;47.20
42135;DHT22;28312;43.460;11.810;2023-07-28T18:00:04;29.20;47.30
42135;DHT22;28312;43.460;11.810;2023-07-28T18:04:10;29.10;47.30
42135;DHT22;28312;43.460;11.810;2023-07-28T18:08:13;29.10;47.40
42135;DHT22;28312;43.460;11.810;2023-07-28T18:12:17;28.90;47.40
42135;DHT22;28312;43.460;11.810;2023-07-28T18:16:21;28.80;47.60
42135;DHT22;28312;43.460;11.810;2023-07-28T18:20:28;28.60;47.60
42135;DHT22;28312;43.460;11.810;2023-07-28T18:24:32;28.50;47.70
42135;DHT22;28312;43.460;11.810;2023-07-28T18:28:35;28.40;47.90
42135;DHT22;28312;43.460;11.810;2023-07-28T18:32:39;28.30;48.00
42135;DHT22;28312;43.460;11.810;2023-07-28T18:36:42;28.20;48.00
42135;DHT22;28312;43.460;11.810;2023-07-28T18:40:46;28.20;48.00
42135;DHT22;28312;43.460;11.810;2023-07-28T18:44:50;28.10;48.00
42135;DHT22;28312;43.460;11.810;2023-07-28T18:48:53;28.10;48.00
42135;DHT22;28312;43.460;11.810;2023-07-28T18:52:57;28.00;48.00
42135;DHT22;28312;43.460;11.810;2023-07-28T18:57:00;27.90;48.10
42135;DHT22;28312;43.460;11.810;2023-07-28T19:01:04;27.70;48.20
42135;DHT22;28312;43.460;11.810;2023-07-28T19:05:08;27.60;48.30
42135;DHT22;28312;43.460;11.810;2023-07-28T19:09:12;27.50;48.30
42135;DHT22;28312;43.460;11.810;2023-07-28T19:13:16;27.40;48.40
42135;DHT22;28312;43.460;11.810;2023-07-28T19:17:19;27.20;48.60
42135;DHT22;28312;43.460;11.810;2023-07-28T19:21:24;27.10;48.70
42135;DHT22;28312;43.460;11.810;2023-07-28T19:25:27;26.80;48.90
42135;DHT22;28312;43.460;11.810;2023-07-28T19:29:34;26.60;49.10
42135;DHT22;28312;43.460;11.810;2023-07-28T19:33:37;26.50;49.20
42135;DHT22;28312;43.460;11.810;2023-07-28T19:37:43;26.30;49.30
42135;DHT22;28312;43.460;11.810;2023-07-28T19:41:47;26.20;49.20
42135;DHT22;28312;43.460;11.810;2023-07-28T19:45:50;26.00;49.50
42135;DHT22;28312;43.460;11.810;2023-07-28T19:49:55;25.90;49.70
42135;DHT22;28312;43.460;11.810;2023-07-28T19:54:14;25.80;49.80
42135;DHT22;28312;43.460;11.810;2023-07-28T19:58:18;25.80;49.90
42135;DHT22;28312;43.460;11.810;2023-07-28T20:02:21;25.80;50.10
42135;DHT22;28312;43.460;11.810;2023-07-28T20:06:25;25.70;50.30
42135;DHT22;28312;43.460;11.810;2023-07-28T20:10:28;25.60;50.40
42135;DHT22;28312;43.460;11.810;2023-07-28T20:14:36;25.60;50.50
42135;DHT22;28312;43.460;11.810;2023-07-28T20:18:40;25.60;50.70
42135;DHT22;28312;43.460;11.810;2023-07-28T20:22:45;25.40;50.80
42135;DHT22;28312;43.460;11.810;2023-07-28T20:26:48;25.40;50.90
42135;DHT22;28312;43.460;11.810;2023-07-28T20:30:54;25.30;51.00
42135;DHT22;28312;43.460;11.810;2023-07-28T20:34:57;25.20;51.10
42135;DHT22;28312;43.460;11.810;2023-07-28T20:39:01;25.10;51.30
42135;DHT22;28312;43.460;11.810;2023-07-28T20:43:05;25.00;51.40
42135;DHT22;28312;43.460;11.810;2023-07-28T20:47:08;24.90;51.50
42135;DHT22;28312;43.460;11.810;2023-07-28T20:51:11;24.80;51.60
42135;DHT22;28312;43.460;11.810;2023-07-28T20:55:15;24.70;51.80
42135;DHT22;28312;43.460;11.810;2023-07-28T20:59:18;24.70;52.00
42135;DHT22;28312;43.460;11.810;2023-07-28T21:03:22;24.70;52.10
42135;DHT22;28312;43.460;11.810;2023-07-28T21:07:25;24.60;52.20
42135;DHT22;28312;43.460;11.810;2023-07-28T21:11:29;24.60;52.30
42135;DHT22;28312;43.460;11.810;2023-07-28T21:15:33;24.60;52.40
42135;DHT22;28312;43.460;11.810;2023-07-28T21:19:37;24.60;52.50
42135;DHT22;28312;43.460;11.810;2023-07-28T21:23:43;24.60;52.70
42135;DHT22;28312;43.460;11.810;2023-07-28T21:27:47;24.60;52.70
42135;DHT22;28312;43.460;11.810;2023-07-28T21:31:50;24.50;52.70
42135;DHT22;28312;43.460;11.810;2023-07-28T21:35:54;24.50;52.80
42135;DHT22;28312;43.460;11.810;2023-07-28T21:39:57;24.40;52.80
42135;DHT22;28312;43.460;11.810;2023-07-28T21:44:03;24.30;53.10
42135;DHT22;28312;43.460;11.810;2023-07-28T21:48:07;24.30;53.10
42135;DHT22;28312;43.460;11.810;2023-07-28T21:52:10;24.20;53.20
42135;DHT22;28312;43.460;11.810;2023-07-28T21:56:14;24.20;53.30
42135;DHT22;28312;43.460;11.810;2023-07-28T22:00:17;24.10;53.30
42135;DHT22;28312;43.460;11.810;2023-07-28T22:04:21;24.00;53.50
42135;DHT22;28312;43.460;11.810;2023-07-28T22:08:25;23.90;53.50
42135;DHT22;28312;43.460;11.810;2023-07-28T22:12:35;23.70;53.60
42135;DHT22;28312;43.460;11.810;2023-07-28T22:16:38;23.70;53.70
42135;DHT22;28312;43.460;11.810;2023-07-28T22:20:42;23.60;53.90
42135;DHT22;28312;43.460;11.810;2023-07-28T22:24:46;23.60;54.10
42135;DHT22;28312;43.460;11.810;2023-07-28T22:28:49;23.60;54.20
42135;DHT22;28312;43.460;11.810;2023-07-28T22:32:53;23.50;54.40
42135;DHT22;28312;43.460;11.810;2023-07-28T22:36:56;23.40;54.60
42135;DHT22;28312;43.460;11.810;2023-07-28T22:41:01;23.30;54.70
42135;DHT22;28312;43.460;11.810;2023-07-28T22:45:05;23.30;55.00
42135;DHT22;28312;43.460;11.810;2023-07-28T22:49:09;23.30;55.10
42135;DHT22;28312;43.460;11.810;2023-07-28T22:53:13;23.20;55.00
42135;DHT22;28312;43.460;11.810;2023-07-28T22:57:16;23.20;55.10
42135;DHT22;28312;43.460;11.810;2023-07-28T23:01:20;23.20;55.20
42135;DHT22;28312;43.460;11.810;2023-07-28T23:05:23;23.10;55.40
42135;DHT22;28312;43.460;11.810;2023-07-28T23:09:27;23.10;55.70
42135;DHT22;28312;43.460;11.810;2023-07-28T23:13:32;23.10;55.90
42135;DHT22;28312;43.460;11.810;2023-07-28T23:17:38;23.10;56.10
42135;DHT22;28312;43.460;11.810;2023-07-28T23:21:42;23.10;56.30
42135;DHT22;28312;43.460;11.810;2023-07-28T23:25:45;23.10;56.50
42135;DHT22;28312;43.460;11.810;2023-07-28T23:29:49;23.00;56.80
42135;DHT22;28312;43.460;11.810;2023-07-28T23:33:53;22.90;56.90
42135;DHT22;28312;43.460;11.810;2023-07-28T23:37:57;22.80;57.00
42135;DHT22;28312;43.460;11.810;2023-07-28T23:42:03;22.70;56.90
42135;DHT22;28312;43.460;11.810;2023-07-28T23:46:07;22.70;57.20
42135;DHT22;28312;43.460;11.810;2023-07-28T23:50:13;22.70;57.30
42135;DHT22;28312;43.460;11.810;2023-07-28T23:54:17;22.70;56.80
42135;DHT22;28312;43.460;11.810;2023-07-28T23:58:20;22.70;57.20
